ěÝzenÝ letovÚho provozu ╚eskÚ republiky
Letiste: LKCV Aktualizace: 30.05.2020 01:01:18  UTC
 METAR LKCV 30.05. 01:00 ...
METAR LKCV 300100Z 31005KT CAVOK 12/06 Q1022 NOSIG RMK BLU BLU=
 TAF LKCV 29.05. 23:00 ...
TAF LKCV 292300Z 3000/3100 03006KT CAVOK      TEMPO 3009/3012 BKN030      BECMG 3010/3012 33008KT      PROB40 TEMPO 3012/3018 33015G25KT 7000 SHRA SCT025TCU BKN040=